Time;durP1;ratioP1;P1;durP2;ratioP2;P2;SDS_P1;SDS_P2;PMS_P1;PMS_P2;Temp;Humidity;BMP_temperature;BMP_pressure;BME280_temperature;BME280_humidity;BME280_pressure;Samples;Min_cycle;Max_cycle;Signal;HPM_P1;HPM_P2
2024/01/11 00:02:18;;;;;;;;;;;-6.60;99.90;;;;;;5074012;28;19920;-64
2024/01/11 00:04:43;;;;;;;;;;;-6.60;99.90;;;;;;5079385;28;19920;-64
2024/01/11 00:07:09;;;;;;;;;;;-6.60;99.90;;;;;;5077682;28;19916;-64
2024/01/11 00:09:41;;;;;;;;;;;-6.60;99.90;;;;;;5081866;28;19916;-64
2024/01/11 00:12:07;;;;;;;;;;;-6.60;99.90;;;;;;5075226;28;20004;-63
2024/01/11 00:14:33;;;;;;;;;;;-6.60;99.90;;;;;;5075972;28;20003;-63
2024/01/11 00:16:58;;;;;;;;;;;-6.60;99.90;;;;;;5077741;28;20025;-63
2024/01/11 00:19:24;;;;;;;;;;;-6.60;99.90;;;;;;5079492;28;20277;-64
2024/01/11 00:21:50;;;;;;;;;;;-6.60;99.90;;;;;;5079397;28;19935;-64
2024/01/11 00:24:15;;;;;;;;;;;-6.60;99.90;;;;;;5075037;28;20015;-64
2024/01/11 00:26:41;;;;;;;;;;;-6.60;99.90;;;;;;5076588;28;19938;-64
2024/01/11 00:29:07;;;;;;;;;;;-6.50;99.90;;;;;;5077936;28;19931;-64
2024/01/11 00:31:33;;;;;;;;;;;-6.60;99.90;;;;;;5075685;28;20023;-63
2024/01/11 00:33:58;;;;;;;;;;;-6.50;99.90;;;;;;5081600;28;20440;-64
2024/01/11 00:36:24;;;;;;;;;;;-6.50;99.90;;;;;;5075023;28;19926;-64
2024/01/11 00:38:50;;;;;;;;;;;-6.50;99.90;;;;;;5085078;28;19920;-64
2024/01/11 00:41:16;;;;;;;;;;;-6.60;99.90;;;;;;5068902;28;20015;-64
2024/01/11 00:43:41;;;;;;;;;;;-6.60;99.90;;;;;;5082493;28;20377;-64
2024/01/11 00:46:07;;;;;;;;;;;-6.60;99.90;;;;;;5098038;28;20416;-63
2024/01/11 00:48:33;;;;;;;;;;;-6.60;99.90;;;;;;5071632;28;19928;-64
2024/01/11 00:50:58;;;;;;;;;;;-6.60;99.90;;;;;;5081190;28;20367;-63
2024/01/11 00:53:24;;;;;;;;;;;-6.60;99.90;;;;;;5076233;28;19916;-63
2024/01/11 00:55:50;;;;;;;;;;;-6.60;99.90;;;;;;5076697;28;20364;-64
2024/01/11 00:58:16;;;;;;;;;;;-6.60;99.90;;;;;;5077780;28;20420;-64
2024/01/11 01:00:42;;;;;;;;;;;-6.60;99.90;;;;;;5079119;28;20007;-63
2024/01/11 01:03:07;;;;;;;;;;;-6.60;99.90;;;;;;5077851;28;19981;-63
2024/01/11 01:05:33;;;;;;;;;;;-6.60;99.90;;;;;;5074925;28;19966;-63
2024/01/11 01:07:58;;;;;;;;;;;-6.60;99.90;;;;;;5074516;28;20594;-64
2024/01/11 01:10:24;;;;;;;;;;;-6.70;99.90;;;;;;5087152;28;19916;-64
2024/01/11 01:12:49;;;;;;;;;;;-6.70;99.90;;;;;;5082151;28;19923;-64
2024/01/11 01:15:15;;;;;;;;;;;-6.70;99.90;;;;;;5081377;28;19916;-64
2024/01/11 01:17:41;;;;;;;;;;;-6.70;99.90;;;;;;5080657;28;19920;-64
2024/01/11 01:20:06;;;;;;;;;;;-6.70;99.90;;;;;;5079777;28;20050;-64
2024/01/11 01:22:32;;;;;;;;;;;-6.70;99.90;;;;;;5083159;28;20022;-63
2024/01/11 01:24:58;;;;;;;;;;;-6.70;99.90;;;;;;5080172;28;19925;-64
2024/01/11 01:27:24;;;;;;;;;;;-6.70;99.90;;;;;;5078045;28;19921;-64
2024/01/11 01:29:50;;;;;;;;;;;-6.70;99.90;;;;;;5064615;28;19923;-64
2024/01/11 01:32:15;;;;;;;;;;;-6.70;99.90;;;;;;5087262;28;19916;-64
2024/01/11 01:34:41;;;;;;;;;;;-6.70;99.90;;;;;;5071770;28;20017;-64
2024/01/11 01:37:06;;;;;;;;;;;-6.80;99.90;;;;;;5083848;28;20361;-64
2024/01/11 01:39:32;;;;;;;;;;;-6.70;99.90;;;;;;5082887;28;20007;-64
2024/01/11 01:41:58;;;;;;;;;;;-6.80;99.90;;;;;;5055669;28;20201;-64
2024/01/11 01:44:23;;;;;;;;;;;-6.80;99.90;;;;;;5083627;28;19963;-64
2024/01/11 01:46:49;;;;;;;;;;;-6.80;99.90;;;;;;5085916;28;19916;-64
2024/01/11 01:49:18;;;;;;;;;;;-6.80;99.90;;;;;;5077830;28;19916;-64
2024/01/11 01:51:43;;;;;;;;;;;-6.90;99.90;;;;;;5061999;28;19924;-64
2024/01/11 01:54:09;;;;;;;;;;;-6.90;99.90;;;;;;5084861;28;20542;-64
2024/01/11 01:56:34;;;;;;;;;;;-6.90;99.90;;;;;;5066355;28;19974;-63
2024/01/11 01:59:01;;;;;;;;;;;-6.90;99.90;;;;;;5077162;28;19920;-65
2024/01/11 02:01:27;;;;;;;;;;;-6.90;99.90;;;;;;5084264;28;19916;-64
2024/01/11 02:03:54;;;;;;;;;;;-6.90;99.90;;;;;;5067702;28;19916;-64
2024/01/11 02:06:22;;;;;;;;;;;-6.90;99.90;;;;;;5084590;28;19991;-64
2024/01/11 02:08:48;;;;;;;;;;;-6.90;99.90;;;;;;5080829;28;19916;-64
2024/01/11 02:11:14;;;;;;;;;;;-6.90;99.90;;;;;;5085044;28;19916;-64
2024/01/11 02:13:40;;;;;;;;;;;-7.00;99.90;;;;;;5084821;28;19916;-64
2024/01/11 02:16:06;;;;;;;;;;;-7.00;99.90;;;;;;5075460;28;19960;-64
2024/01/11 02:18:31;;;;;;;;;;;-7.00;99.90;;;;;;5070335;28;19982;-64
2024/01/11 02:20:57;;;;;;;;;;;-7.00;99.90;;;;;;5080209;28;19928;-64
2024/01/11 02:23:24;;;;;;;;;;;-7.00;99.90;;;;;;5061966;28;19916;-64
2024/01/11 02:25:50;;;;;;;;;;;-7.00;99.90;;;;;;5077185;28;20289;-64
2024/01/11 02:28:15;;;;;;;;;;;-7.00;99.90;;;;;;5086419;28;19919;-64
2024/01/11 02:30:42;;;;;;;;;;;-7.00;99.90;;;;;;5078103;28;19916;-64
2024/01/11 02:33:08;;;;;;;;;;;-7.00;99.90;;;;;;5081646;28;19999;-64
2024/01/11 02:35:35;;;;;;;;;;;-7.00;99.90;;;;;;5076662;28;19916;-64
2024/01/11 02:38:00;;;;;;;;;;;-7.00;99.90;;;;;;5082905;28;19920;-64
2024/01/11 02:40:26;;;;;;;;;;;-7.00;99.90;;;;;;5081403;28;19942;-64
2024/01/11 02:42:51;;;;;;;;;;;-7.00;99.90;;;;;;5080610;28;19916;-64
2024/01/11 02:45:18;;;;;;;;;;;-7.00;99.90;;;;;;5076691;28;19916;-64
2024/01/11 02:47:44;;;;;;;;;;;-7.00;99.90;;;;;;5078374;28;20333;-64
2024/01/11 02:50:11;;;;;;;;;;;-7.00;99.90;;;;;;5084224;28;20002;-64
2024/01/11 02:52:37;;;;;;;;;;;-7.00;99.90;;;;;;5081354;28;20003;-64
2024/01/11 02:55:03;;;;;;;;;;;-7.00;99.90;;;;;;5078680;28;20024;-64
2024/01/11 02:57:29;;;;;;;;;;;-7.00;99.90;;;;;;5075812;28;19924;-65
2024/01/11 02:59:54;;;;;;;;;;;-7.00;99.90;;;;;;5080051;28;19974;-64
2024/01/11 03:02:20;;;;;;;;;;;-7.00;99.90;;;;;;5074529;28;20298;-64
2024/01/11 03:04:46;;;;;;;;;;;-7.00;99.90;;;;;;5081345;28;19923;-64
2024/01/11 03:07:11;;;;;;;;;;;-7.00;99.90;;;;;;5080938;28;19984;-64
2024/01/11 03:09:37;;;;;;;;;;;-7.00;99.90;;;;;;5079532;28;20230;-64
2024/01/11 03:12:03;;;;;;;;;;;-6.90;99.90;;;;;;5078286;28;20532;-64
2024/01/11 03:14:28;;;;;;;;;;;-6.90;99.90;;;;;;5083241;28;20407;-64
2024/01/11 03:16:54;;;;;;;;;;;-6.90;99.90;;;;;;5076380;28;19982;-64
2024/01/11 03:19:19;;;;;;;;;;;-6.90;99.90;;;;;;5081156;28;19947;-64
2024/01/11 03:21:46;;;;;;;;;;;-6.90;99.90;;;;;;5082197;28;19916;-64
2024/01/11 03:24:12;;;;;;;;;;;-6.90;99.90;;;;;;5077574;28;19923;-65
2024/01/11 03:26:37;;;;;;;;;;;-6.90;99.90;;;;;;5082975;28;19916;-64
2024/01/11 03:29:03;;;;;;;;;;;-6.90;99.90;;;;;;5082405;28;21011;-64
2024/01/11 03:31:28;;;;;;;;;;;-6.90;99.90;;;;;;5078840;28;20382;-64
2024/01/11 03:33:54;;;;;;;;;;;-6.80;99.90;;;;;;5075742;28;19979;-64
2024/01/11 03:36:22;;;;;;;;;;;-6.80;99.90;;;;;;5083209;28;20143;-64
2024/01/11 03:38:48;;;;;;;;;;;-6.80;99.90;;;;;;5075658;28;20431;-64
2024/01/11 03:41:14;;;;;;;;;;;-6.90;99.90;;;;;;5081730;28;20011;-65
2024/01/11 03:43:39;;;;;;;;;;;-6.80;99.90;;;;;;5080911;28;20015;-64
2024/01/11 03:46:05;;;;;;;;;;;-6.80;99.90;;;;;;5078931;28;20351;-64
2024/01/11 03:48:31;;;;;;;;;;;-6.90;99.90;;;;;;5073838;28;19969;-64
2024/01/11 03:50:57;;;;;;;;;;;-6.80;99.90;;;;;;5075617;28;19980;-64
2024/01/11 03:53:22;;;;;;;;;;;-6.90;99.90;;;;;;5075712;28;19981;-64
2024/01/11 03:55:48;;;;;;;;;;;-6.90;99.90;;;;;;5077407;28;19993;-64
2024/01/11 03:58:14;;;;;;;;;;;-6.80;99.90;;;;;;5078312;28;19943;-64
2024/01/11 04:00:39;;;;;;;;;;;-6.90;99.90;;;;;;5074815;28;19916;-64
2024/01/11 04:03:06;;;;;;;;;;;-6.90;99.90;;;;;;5078726;28;20412;-64
2024/01/11 04:05:32;;;;;;;;;;;-6.90;99.90;;;;;;5080342;28;19916;-64
2024/01/11 04:07:57;;;;;;;;;;;-6.90;99.90;;;;;;5079404;28;20270;-64
2024/01/11 04:10:23;;;;;;;;;;;-6.90;99.90;;;;;;5078586;28;20377;-64
2024/01/11 04:12:49;;;;;;;;;;;-6.90;99.90;;;;;;5078339;28;19927;-64
2024/01/11 04:15:14;;;;;;;;;;;-6.90;99.90;;;;;;5080121;28;20380;-64
2024/01/11 04:17:40;;;;;;;;;;;-6.90;99.90;;;;;;5074986;28;19933;-64
2024/01/11 04:20:06;;;;;;;;;;;-6.90;99.90;;;;;;5078091;28;19916;-64
2024/01/11 04:22:32;;;;;;;;;;;-6.90;99.90;;;;;;5077780;28;19916;-64
2024/01/11 04:24:58;;;;;;;;;;;-6.90;99.90;;;;;;5078484;28;20327;-64
2024/01/11 04:27:23;;;;;;;;;;;-6.90;99.90;;;;;;5083113;28;19917;-64
2024/01/11 04:29:49;;;;;;;;;;;-6.90;99.90;;;;;;5075543;28;19917;-64
2024/01/11 04:32:14;;;;;;;;;;;-7.00;99.90;;;;;;5082828;28;19916;-64
2024/01/11 04:34:40;;;;;;;;;;;-7.00;99.90;;;;;;5061560;28;19977;-64
2024/01/11 04:37:06;;;;;;;;;;;-7.00;99.90;;;;;;5073517;28;19988;-64
2024/01/11 04:39:32;;;;;;;;;;;-7.00;99.90;;;;;;5077785;28;19923;-64
2024/01/11 04:41:57;;;;;;;;;;;-7.00;99.90;;;;;;5082421;28;19920;-64
2024/01/11 04:44:23;;;;;;;;;;;-7.00;99.90;;;;;;5076224;28;19916;-64
2024/01/11 04:46:48;;;;;;;;;;;-7.00;99.90;;;;;;5077074;28;19920;-64
2024/01/11 04:49:14;;;;;;;;;;;-7.00;99.90;;;;;;5073840;28;19930;-64
2024/01/11 04:51:40;;;;;;;;;;;-7.00;99.90;;;;;;5082651;28;20083;-64
2024/01/11 04:54:05;;;;;;;;;;;-7.10;99.90;;;;;;5085964;28;19924;-64
2024/01/11 04:56:31;;;;;;;;;;;-7.00;99.90;;;;;;5080949;28;20408;-64
2024/01/11 04:58:56;;;;;;;;;;;-7.00;99.90;;;;;;5086856;28;20438;-64
2024/01/11 05:01:22;;;;;;;;;;;-7.00;99.90;;;;;;5076920;28;19920;-64
2024/01/11 05:03:48;;;;;;;;;;;-7.00;99.90;;;;;;5078759;28;20151;-64
2024/01/11 05:06:15;;;;;;;;;;;-7.00;99.90;;;;;;5082903;28;19916;-64
2024/01/11 05:08:40;;;;;;;;;;;-7.00;99.90;;;;;;5076508;28;20683;-64
2024/01/11 05:11:06;;;;;;;;;;;-7.00;99.90;;;;;;5075695;28;19928;-64
2024/01/11 05:13:31;;;;;;;;;;;-7.00;99.90;;;;;;5086490;28;19978;-64
2024/01/11 05:15:57;;;;;;;;;;;-7.00;99.90;;;;;;5081598;28;20012;-64
2024/01/11 05:18:23;;;;;;;;;;;-7.00;99.90;;;;;;5077667;28;19920;-64
2024/01/11 05:20:48;;;;;;;;;;;-7.00;99.90;;;;;;5082417;28;19920;-64
2024/01/11 05:23:14;;;;;;;;;;;-7.00;99.90;;;;;;5079649;28;20343;-64
2024/01/11 05:25:39;;;;;;;;;;;-7.00;99.90;;;;;;5086161;28;20002;-64
2024/01/11 05:28:05;;;;;;;;;;;-7.00;99.90;;;;;;5083104;28;19920;-64
2024/01/11 05:30:31;;;;;;;;;;;-7.00;99.90;;;;;;5082885;28;19932;-65
2024/01/11 05:32:56;;;;;;;;;;;-7.10;99.90;;;;;;5078988;28;19923;-64
2024/01/11 05:35:23;;;;;;;;;;;-7.00;99.90;;;;;;5086038;28;19922;-64
2024/01/11 05:37:50;;;;;;;;;;;-7.00;99.90;;;;;;5079068;28;20377;-64
2024/01/11 05:40:15;;;;;;;;;;;-7.00;99.90;;;;;;5081101;28;19916;-64
2024/01/11 05:42:41;;;;;;;;;;;-6.90;99.90;;;;;;5082705;28;19942;-64
2024/01/11 05:45:07;;;;;;;;;;;-6.90;99.90;;;;;;5086698;28;19963;-64
2024/01/11 05:47:32;;;;;;;;;;;-6.80;99.90;;;;;;5082076;28;20007;-64
2024/01/11 05:49:58;;;;;;;;;;;-6.70;99.90;;;;;;5081919;28;19917;-64
2024/01/11 05:52:23;;;;;;;;;;;-6.60;99.90;;;;;;5063454;28;19916;-64
2024/01/11 05:54:49;;;;;;;;;;;-6.50;99.90;;;;;;5084176;28;19916;-64
2024/01/11 05:57:15;;;;;;;;;;;-6.40;99.90;;;;;;5083097;28;20203;-64
2024/01/11 05:59:44;;;;;;;;;;;-6.30;99.90;;;;;;5075883;28;19939;-64
2024/01/11 06:02:11;;;;;;;;;;;-6.20;99.90;;;;;;5081902;28;19916;-64
2024/01/11 06:04:36;;;;;;;;;;;-6.10;99.90;;;;;;5079402;28;19916;-64
2024/01/11 06:07:02;;;;;;;;;;;-6.00;99.90;;;;;;5072465;28;19917;-64
2024/01/11 06:09:27;;;;;;;;;;;-6.00;99.90;;;;;;5081798;28;19916;-64
2024/01/11 06:11:53;;;;;;;;;;;-5.90;99.90;;;;;;5080974;28;20326;-64
2024/01/11 06:14:19;;;;;;;;;;;-5.90;99.90;;;;;;5074777;28;19928;-64
2024/01/11 06:16:44;;;;;;;;;;;-5.70;99.90;;;;;;5084847;28;19924;-64
2024/01/11 06:19:10;;;;;;;;;;;-5.60;99.90;;;;;;5077915;28;19963;-64
2024/01/11 06:21:36;;;;;;;;;;;-5.60;99.90;;;;;;5082509;28;19917;-64
2024/01/11 06:24:03;;;;;;;;;;;-5.50;99.90;;;;;;5080083;28;19938;-64
2024/01/11 06:26:29;;;;;;;;;;;-5.50;99.90;;;;;;5081396;28;20388;-64
2024/01/11 06:28:54;;;;;;;;;;;-5.40;99.90;;;;;;5077622;28;19920;-64
2024/01/11 06:31:20;;;;;;;;;;;-5.40;99.90;;;;;;5085137;28;19916;-64
2024/01/11 06:33:46;;;;;;;;;;;-5.30;99.90;;;;;;5079304;28;20022;-64
2024/01/11 06:36:11;;;;;;;;;;;-5.20;99.90;;;;;;5088988;28;20277;-64
2024/01/11 06:38:37;;;;;;;;;;;-5.20;99.90;;;;;;5065032;28;19955;-64
2024/01/11 06:41:03;;;;;;;;;;;-5.10;99.90;;;;;;5079188;28;20014;-64
2024/01/11 06:43:28;;;;;;;;;;;-5.00;99.90;;;;;;5084120;28;19994;-63
2024/01/11 06:45:54;;;;;;;;;;;-5.00;99.90;;;;;;5077480;28;20015;-64
2024/01/11 06:48:20;;;;;;;;;;;-4.90;99.90;;;;;;5046610;28;19923;-64
2024/01/11 06:50:45;;;;;;;;;;;-4.90;99.90;;;;;;5079498;28;19922;-63
2024/01/11 06:53:11;;;;;;;;;;;-4.80;99.90;;;;;;5079138;28;20323;-64
2024/01/11 06:55:37;;;;;;;;;;;-4.80;99.90;;;;;;5081786;28;19927;-64
2024/01/11 06:58:02;;;;;;;;;;;-4.70;99.90;;;;;;5075273;28;19973;-64
2024/01/11 07:00:28;;;;;;;;;;;-4.60;99.90;;;;;;5074915;28;19961;-65
2024/01/11 07:02:54;;;;;;;;;;;-4.60;99.90;;;;;;5096320;28;19922;-64
2024/01/11 07:05:19;;;;;;;;;;;-4.50;99.90;;;;;;5078159;28;19919;-64
2024/01/11 07:07:45;;;;;;;;;;;-4.50;99.90;;;;;;5077783;28;19916;-64
2024/01/11 07:10:12;;;;;;;;;;;-4.40;99.90;;;;;;5078139;28;19916;-64
2024/01/11 07:12:38;;;;;;;;;;;-4.40;99.90;;;;;;5082478;28;20169;-64
2024/01/11 07:15:04;;;;;;;;;;;-4.30;99.90;;;;;;5082113;28;19925;-64
2024/01/11 07:17:30;;;;;;;;;;;-4.30;99.90;;;;;;5056309;28;19920;-64
2024/01/11 07:19:56;;;;;;;;;;;-4.30;99.90;;;;;;5078420;28;19916;-64
2024/01/11 07:22:21;;;;;;;;;;;-4.20;99.90;;;;;;5072490;28;19916;-65
2024/01/11 07:24:47;;;;;;;;;;;-4.20;99.90;;;;;;5071670;28;19924;-64
2024/01/11 07:27:13;;;;;;;;;;;-4.20;99.90;;;;;;5077173;28;19993;-64
2024/01/11 07:29:38;;;;;;;;;;;-4.10;99.90;;;;;;5081246;28;19916;-65
2024/01/11 07:32:04;;;;;;;;;;;-4.10;99.90;;;;;;5073151;28;19916;-64
2024/01/11 07:34:30;;;;;;;;;;;-4.10;99.90;;;;;;5069653;28;19917;-64
2024/01/11 07:36:56;;;;;;;;;;;-4.00;99.90;;;;;;5070498;28;20286;-65
2024/01/11 07:39:22;;;;;;;;;;;-4.00;99.90;;;;;;5072074;28;19916;-64
2024/01/11 07:41:48;;;;;;;;;;;-4.00;99.90;;;;;;5069738;28;19916;-64
2024/01/11 07:44:13;;;;;;;;;;;-3.90;99.90;;;;;;5071000;28;19924;-65
2024/01/11 07:46:39;;;;;;;;;;;-3.90;99.90;;;;;;5070521;28;19920;-65
2024/01/11 07:49:05;;;;;;;;;;;-3.90;99.90;;;;;;5065522;28;19948;-65
2024/01/11 07:51:31;;;;;;;;;;;-3.90;99.90;;;;;;5069127;28;19916;-65
2024/01/11 07:53:56;;;;;;;;;;;-3.90;99.90;;;;;;5070544;28;19916;-65
2024/01/11 07:56:22;;;;;;;;;;;-3.80;99.90;;;;;;5069337;28;19919;-64
2024/01/11 07:58:47;;;;;;;;;;;-3.80;99.90;;;;;;5073163;28;20000;-64
2024/01/11 08:01:15;;;;;;;;;;;-3.80;99.90;;;;;;5076886;28;19966;-64
2024/01/11 08:03:41;;;;;;;;;;;-3.80;99.90;;;;;;5068753;28;19916;-65
2024/01/11 08:06:07;;;;;;;;;;;-3.70;99.90;;;;;;5070372;28;20349;-65
2024/01/11 08:08:33;;;;;;;;;;;-3.70;99.90;;;;;;5070389;28;19916;-64
2024/01/11 08:10:59;;;;;;;;;;;-3.70;99.90;;;;;;5070027;28;19994;-65
2024/01/11 08:13:25;;;;;;;;;;;-3.60;99.90;;;;;;5067992;28;19995;-65
2024/01/11 08:15:50;;;;;;;;;;;-3.60;99.90;;;;;;5069329;28;19916;-65
2024/01/11 08:18:19;;;;;;;;;;;-3.60;99.90;;;;;;5062220;28;19920;-65
2024/01/11 08:20:45;;;;;;;;;;;-3.50;99.90;;;;;;5068676;28;19921;-65
2024/01/11 08:23:11;;;;;;;;;;;-3.50;99.90;;;;;;5068938;28;19925;-65
2024/01/11 08:25:36;;;;;;;;;;;-3.40;99.90;;;;;;5069216;28;19924;-65
2024/01/11 08:28:02;;;;;;;;;;;-3.40;99.90;;;;;;5050840;28;20382;-64
2024/01/11 08:30:28;;;;;;;;;;;-3.30;99.90;;;;;;5067223;28;19967;-64
2024/01/11 08:32:55;;;;;;;;;;;-3.30;99.90;;;;;;5070100;28;19987;-64
2024/01/11 08:35:21;;;;;;;;;;;-3.30;99.90;;;;;;5069193;28;19916;-65
2024/01/11 08:37:47;;;;;;;;;;;-3.30;99.90;;;;;;5068632;28;19943;-64
2024/01/11 08:40:12;;;;;;;;;;;-3.20;99.90;;;;;;5068671;28;19939;-64
2024/01/11 08:42:39;;;;;;;;;;;-3.20;99.90;;;;;;5072783;28;19935;-64
2024/01/11 08:45:06;;;;;;;;;;;-3.10;99.90;;;;;;5069115;28;19927;-64
2024/01/11 08:47:32;;;;;;;;;;;-3.10;99.90;;;;;;5055505;28;19931;-64
2024/01/11 08:49:58;;;;;;;;;;;-3.10;99.90;;;;;;5070736;28;19923;-64
2024/01/11 08:52:23;;;;;;;;;;;-3.00;99.90;;;;;;5071119;28;20498;-64
2024/01/11 08:54:49;;;;;;;;;;;-3.00;99.90;;;;;;5053499;28;19931;-64
2024/01/11 08:57:15;;;;;;;;;;;-3.00;99.90;;;;;;5071983;28;20347;-64
2024/01/11 08:59:41;;;;;;;;;;;-2.90;99.90;;;;;;5069690;28;19923;-64
2024/01/11 09:02:06;;;;;;;;;;;-2.90;99.90;;;;;;5031826;28;19920;-64
2024/01/11 09:04:33;;;;;;;;;;;-2.90;99.90;;;;;;5072561;28;19916;-64
2024/01/11 09:06:59;;;;;;;;;;;-2.80;99.90;;;;;;5071577;28;19924;-64
2024/01/11 09:09:24;;;;;;;;;;;-2.70;99.90;;;;;;5072780;28;19924;-64
2024/01/11 09:11:50;;;;;;;;;;;-2.70;99.90;;;;;;5072610;28;20400;-64
2024/01/11 09:14:15;;;;;;;;;;;-2.70;99.90;;;;;;5065449;28;19967;-64
2024/01/11 09:16:41;;;;;;;;;;;-2.60;99.90;;;;;;5067008;28;20579;-64
2024/01/11 09:19:07;;;;;;;;;;;-2.60;99.90;;;;;;5051017;28;19920;-64
2024/01/11 09:21:32;;;;;;;;;;;-2.50;99.90;;;;;;5067368;28;19924;-64
2024/01/11 09:23:58;;;;;;;;;;;-2.50;99.90;;;;;;5068931;28;20023;-64
2024/01/11 09:26:24;;;;;;;;;;;-2.50;99.90;;;;;;5068976;28;19928;-64
2024/01/11 09:28:50;;;;;;;;;;;-2.40;99.90;;;;;;5047071;28;19926;-64
2024/01/11 09:31:15;;;;;;;;;;;-2.40;99.90;;;;;;5063800;28;19931;-64
2024/01/11 09:33:45;;;;;;;;;;;-2.30;99.90;;;;;;5049954;28;19923;-64
2024/01/11 09:36:11;;;;;;;;;;;-2.30;99.90;;;;;;5068365;28;19924;-64
2024/01/11 09:38:37;;;;;;;;;;;-2.20;99.90;;;;;;5069749;28;19970;-64
2024/01/11 09:41:07;;;;;;;;;;;-2.20;99.90;;;;;;5073480;28;19956;-64
2024/01/11 09:43:34;;;;;;;;;;;-2.10;99.90;;;;;;5072193;28;20404;-65
2024/01/11 09:46:03;;;;;;;;;;;-2.10;99.90;;;;;;5073623;28;19916;-65
2024/01/11 09:48:29;;;;;;;;;;;-2.00;99.90;;;;;;5069385;28;20475;-65
2024/01/11 09:50:56;;;;;;;;;;;-2.10;99.90;;;;;;5073102;28;20018;-65
2024/01/11 09:53:24;;;;;;;;;;;-2.00;99.90;;;;;;5074118;28;19924;-64
2024/01/11 09:55:50;;;;;;;;;;;-2.00;99.90;;;;;;5054093;28;19924;-64
2024/01/11 09:58:16;;;;;;;;;;;-2.00;99.90;;;;;;5073042;28;19936;-65
2024/01/11 10:00:43;;;;;;;;;;;-1.90;99.90;;;;;;5054962;28;19916;-65
2024/01/11 10:03:09;;;;;;;;;;;-1.90;99.90;;;;;;5073919;28;20594;-64
2024/01/11 10:05:35;;;;;;;;;;;-1.80;99.90;;;;;;5075117;28;19916;-65
2024/01/11 10:08:01;;;;;;;;;;;-1.80;99.90;;;;;;5072795;28;20122;-65
2024/01/11 10:10:27;;;;;;;;;;;-1.70;99.90;;;;;;5073940;28;19916;-64
2024/01/11 10:12:53;;;;;;;;;;;-1.70;99.90;;;;;;5074030;28;19973;-65
2024/01/11 10:15:18;;;;;;;;;;;-1.60;99.90;;;;;;5071881;28;19928;-64
2024/01/11 10:17:44;;;;;;;;;;;-1.60;99.90;;;;;;5074149;28;20066;-64
2024/01/11 10:20:11;;;;;;;;;;;-1.50;99.90;;;;;;5077166;28;19924;-65
2024/01/11 10:22:36;;;;;;;;;;;-1.40;99.90;;;;;;5077108;28;20422;-64
2024/01/11 10:25:12;;;;;;;;;;;-1.40;99.90;;;;;;5078235;28;19920;-64
2024/01/11 10:27:42;;;;;;;;;;;-1.30;99.90;;;;;;5073978;28;19924;-64
2024/01/11 10:30:08;;;;;;;;;;;-1.30;99.90;;;;;;5056142;28;20014;-65
2024/01/11 10:32:36;;;;;;;;;;;-1.20;99.90;;;;;;5073368;28;20006;-64
2024/01/11 10:35:05;;;;;;;;;;;-1.20;99.90;;;;;;5078502;28;19928;-64
2024/01/11 10:37:32;;;;;;;;;;;-1.20;99.90;;;;;;5078712;28;19965;-65
2024/01/11 10:40:02;;;;;;;;;;;-1.10;99.90;;;;;;5076609;28;20031;-64
2024/01/11 10:42:30;;;;;;;;;;;-1.10;99.90;;;;;;5068132;28;19924;-65
2024/01/11 10:44:58;;;;;;;;;;;-1.00;99.90;;;;;;5072202;28;20014;-64
2024/01/11 10:47:28;;;;;;;;;;;-1.00;99.90;;;;;;5072167;28;19920;-62
2024/01/11 10:49:56;;;;;;;;;;;-0.90;99.90;;;;;;5061160;28;19923;-62
2024/01/11 10:52:22;;;;;;;;;;;-0.90;99.90;;;;;;5072442;28;19917;-62
2024/01/11 10:54:48;;;;;;;;;;;-0.90;99.90;;;;;;5070887;28;19916;-61
2024/01/11 10:57:16;;;;;;;;;;;-0.80;99.90;;;;;;5053777;28;19920;-62
2024/01/11 10:59:43;;;;;;;;;;;-0.70;99.90;;;;;;5066682;28;19917;-62
2024/01/11 11:02:12;;;;;;;;;;;-0.70;99.90;;;;;;5069352;28;19958;-62
2024/01/11 11:04:41;;;;;;;;;;;-0.70;99.90;;;;;;5070652;28;19969;-62
2024/01/11 11:07:08;;;;;;;;;;;-0.80;99.90;;;;;;5071022;28;19924;-62
2024/01/11 11:09:34;;;;;;;;;;;-0.70;99.90;;;;;;5053378;28;19917;-62
2024/01/11 11:12:00;;;;;;;;;;;-0.70;99.90;;;;;;5071592;28;20003;-62
2024/01/11 11:14:27;;;;;;;;;;;-0.60;99.90;;;;;;5068251;28;20378;-62
2024/01/11 11:16:53;;;;;;;;;;;-0.60;99.90;;;;;;5069351;28;19975;-61
2024/01/11 11:19:19;;;;;;;;;;;-0.60;99.90;;;;;;5070860;28;20332;-62
2024/01/11 11:21:45;;;;;;;;;;;-0.50;99.90;;;;;;5071220;28;20085;-62
2024/01/11 11:24:11;;;;;;;;;;;-0.50;99.90;;;;;;5071596;28;20393;-62
2024/01/11 11:26:37;;;;;;;;;;;-0.50;99.90;;;;;;5069905;28;19916;-62
2024/01/11 11:29:05;;;;;;;;;;;-0.50;99.90;;;;;;5067868;28;19956;-62
2024/01/11 11:31:38;;;;;;;;;;;-0.40;99.90;;;;;;5070303;28;19916;-62
2024/01/11 11:34:04;;;;;;;;;;;-0.40;99.90;;;;;;5067225;28;19920;-62
2024/01/11 11:36:30;;;;;;;;;;;-0.40;99.90;;;;;;5071576;28;19940;-62
2024/01/11 11:39:00;;;;;;;;;;;-0.40;99.90;;;;;;5070235;28;20554;-62
2024/01/11 11:41:26;;;;;;;;;;;-0.30;99.90;;;;;;5071119;28;20402;-62
2024/01/11 11:43:52;;;;;;;;;;;-0.30;99.90;;;;;;5069281;28;19920;-62
2024/01/11 11:46:19;;;;;;;;;;;-0.20;99.90;;;;;;5071039;28;20388;-62
2024/01/11 11:48:48;;;;;;;;;;;-0.20;99.90;;;;;;5069820;28;20084;-62
2024/01/11 11:51:14;;;;;;;;;;;-0.20;99.90;;;;;;5052787;28;20008;-62
2024/01/11 11:53:40;;;;;;;;;;;-0.10;99.90;;;;;;5069170;28;20023;-62
2024/01/11 11:56:16;;;;;;;;;;;-0.10;99.90;;;;;;5066492;28;20297;-62
2024/01/11 11:58:45;;;;;;;;;;;-0.10;99.90;;;;;;5056946;28;19935;-62
2024/01/11 12:01:11;;;;;;;;;;;0.00;99.90;;;;;;5069230;28;19960;-61
2024/01/11 12:03:41;;;;;;;;;;;0.00;99.90;;;;;;5064401;28;19916;-62
2024/01/11 12:06:08;;;;;;;;;;;0.00;99.90;;;;;;5066607;28;19950;-62
2024/01/11 12:08:35;;;;;;;;;;;0.10;99.90;;;;;;5059181;28;19939;-62
2024/01/11 12:11:01;;;;;;;;;;;0.10;99.90;;;;;;5037207;28;19917;-62
2024/01/11 12:13:26;;;;;;;;;;;0.20;99.90;;;;;;5054036;28;19928;-61
2024/01/11 12:15:53;;;;;;;;;;;0.10;99.90;;;;;;5054006;28;20011;-62
2024/01/11 12:18:19;;;;;;;;;;;0.10;99.90;;;;;;5052148;28;19980;-61
2024/01/11 12:20:45;;;;;;;;;;;0.10;99.90;;;;;;5052044;28;19967;-61
2024/01/11 12:23:10;;;;;;;;;;;0.20;99.90;;;;;;5053964;28;19920;-61
2024/01/11 12:25:36;;;;;;;;;;;0.10;99.90;;;;;;5052566;28;20308;-61
2024/01/11 12:28:02;;;;;;;;;;;0.20;99.90;;;;;;5057106;28;20542;-61
2024/01/11 12:30:27;;;;;;;;;;;0.10;99.90;;;;;;5065713;28;20171;-61
2024/01/11 12:32:54;;;;;;;;;;;0.10;99.90;;;;;;5063374;28;19920;-62
2024/01/11 12:35:20;;;;;;;;;;;0.10;99.90;;;;;;5059938;28;19916;-62
2024/01/11 12:37:55;;;;;;;;;;;0.10;99.90;;;;;;5070383;28;19930;-62
2024/01/11 12:40:24;;;;;;;;;;;0.10;99.90;;;;;;5076315;28;20020;-62
2024/01/11 12:42:49;;;;;;;;;;;0.10;99.90;;;;;;5075056;28;19954;-61
2024/01/11 12:45:16;;;;;;;;;;;0.10;99.90;;;;;;5071648;28;20357;-62
2024/01/11 12:47:41;;;;;;;;;;;0.10;99.90;;;;;;5057536;28;20427;-61
2024/01/11 12:50:07;;;;;;;;;;;0.10;99.90;;;;;;5076953;28;19999;-62
2024/01/11 12:52:33;;;;;;;;;;;0.10;99.90;;;;;;5071160;28;19943;-62
2024/01/11 12:54:59;;;;;;;;;;;0.20;99.90;;;;;;5058232;28;20294;-61
2024/01/11 12:57:26;;;;;;;;;;;0.20;99.90;;;;;;5074232;28;19920;-62
2024/01/11 12:59:52;;;;;;;;;;;0.20;99.90;;;;;;5069072;28;20880;-61
2024/01/11 13:02:18;;;;;;;;;;;0.20;99.90;;;;;;5067494;28;19924;-62
2024/01/11 13:04:46;;;;;;;;;;;0.20;99.90;;;;;;5071097;28;19927;-61
2024/01/11 13:07:12;;;;;;;;;;;0.20;99.90;;;;;;5070048;28;19923;-61
2024/01/11 13:09:38;;;;;;;;;;;0.20;99.90;;;;;;5073723;28;20011;-62
2024/01/11 13:12:04;;;;;;;;;;;0.20;99.90;;;;;;5073050;28;19970;-61
2024/01/11 13:14:30;;;;;;;;;;;0.30;99.90;;;;;;5056284;28;20369;-61
2024/01/11 13:16:55;;;;;;;;;;;0.30;99.90;;;;;;5076592;28;19927;-61
2024/01/11 13:19:21;;;;;;;;;;;0.30;99.90;;;;;;5078312;28;20782;-62
2024/01/11 13:21:46;;;;;;;;;;;0.30;99.90;;;;;;5071485;28;20540;-61
2024/01/11 13:24:12;;;;;;;;;;;0.30;99.90;;;;;;5072913;28;20304;-61
2024/01/11 13:26:38;;;;;;;;;;;0.30;99.90;;;;;;5072479;28;20038;-61
2024/01/11 13:29:05;;;;;;;;;;;0.30;99.90;;;;;;5075880;28;20132;-61
2024/01/11 13:31:31;;;;;;;;;;;0.40;99.90;;;;;;5075110;28;19916;-61
2024/01/11 13:33:56;;;;;;;;;;;0.30;99.90;;;;;;5071390;28;19920;-62
2024/01/11 13:36:23;;;;;;;;;;;0.30;99.90;;;;;;5073031;28;19922;-62
2024/01/11 13:38:52;;;;;;;;;;;0.30;99.90;;;;;;5069428;28;19928;-62
2024/01/11 13:41:18;;;;;;;;;;;0.30;99.90;;;;;;5056992;28;19969;-62
2024/01/11 13:43:43;;;;;;;;;;;0.30;99.90;;;;;;5063510;28;19923;-61
2024/01/11 13:46:11;;;;;;;;;;;0.30;99.90;;;;;;5073421;28;20292;-62
2024/01/11 13:48:38;;;;;;;;;;;0.30;99.90;;;;;;5051566;28;19978;-62
2024/01/11 13:51:03;;;;;;;;;;;0.30;99.90;;;;;;5054177;28;19974;-61
2024/01/11 13:53:29;;;;;;;;;;;0.20;99.90;;;;;;5056166;28;19915;-62
2024/01/11 13:55:55;;;;;;;;;;;0.30;99.90;;;;;;5049056;28;19931;-62
2024/01/11 13:58:21;;;;;;;;;;;0.20;99.90;;;;;;5072388;28;20907;-62
2024/01/11 14:00:46;;;;;;;;;;;0.20;99.90;;;;;;5075847;28;20170;-61
2024/01/11 14:03:12;;;;;;;;;;;0.20;99.90;;;;;;5073744;28;19923;-62
2024/01/11 14:05:38;;;;;;;;;;;0.20;99.90;;;;;;5053645;28;19935;-61
2024/01/11 14:08:06;;;;;;;;;;;0.20;99.90;;;;;;5069081;28;19927;-61
2024/01/11 14:10:32;;;;;;;;;;;0.20;99.90;;;;;;5071506;28;19947;-61
2024/01/11 14:12:59;;;;;;;;;;;0.20;99.90;;;;;;5067828;28;19947;-62